Time;durP1;ratioP1;P1;durP2;ratioP2;P2;SDS_P1;SDS_P2;PMS_P1;PMS_P2;Temp;Humidity;BMP_temperature;BMP_pressure;BME280_temperature;BME280_humidity;BME280_pressure;Samples;Min_cycle;Max_cycle;Signal;HPM_P1;HPM_P2
2022/10/17 00:00:34;;;;;;;3.90;3.53;;;;;;;12.67;100.00;100695.00;5071686;28;20234;-74
2022/10/17 00:03:00;;;;;;;4.87;3.37;;;;;;;12.63;100.00;100689.84;5070126;28;20254;-74
2022/10/17 00:05:26;;;;;;;3.77;3.47;;;;;;;12.62;100.00;100689.88;5071012;28;20569;-75
2022/10/17 00:07:51;;;;;;;4.00;3.50;;;;;;;12.60;100.00;100689.03;5075512;28;20204;-73
2022/10/17 00:10:18;;;;;;;3.70;3.30;;;;;;;12.59;100.00;100693.34;5073839;28;20205;-74
2022/10/17 00:12:43;;;;;;;5.63;3.80;;;;;;;12.58;100.00;100694.22;5075628;28;20294;-74
2022/10/17 00:15:13;;;;;;;4.00;3.27;;;;;;;12.58;100.00;100694.22;5072007;28;20806;-74
2022/10/17 00:17:38;;;;;;;3.80;3.50;;;;;;;12.57;100.00;100710.66;5071278;28;20202;-74
2022/10/17 00:20:04;;;;;;;6.10;3.50;;;;;;;12.57;100.00;100704.63;5073767;28;20672;-74
2022/10/17 00:22:30;;;;;;;5.40;3.30;;;;;;;12.56;100.00;100715.88;5069584;28;20666;-74
2022/10/17 00:24:55;;;;;;;3.60;3.30;;;;;;;12.54;100.00;100715.03;5075178;28;20264;-74
2022/10/17 00:27:20;;;;;;;5.53;3.50;;;;;;;12.51;100.00;100721.13;5078007;28;20203;-77
2022/10/17 00:29:50;;;;;;;7.20;3.23;;;;;;;12.48;100.00;100727.19;5076383;28;20185;-74
2022/10/17 00:32:15;;;;;;;5.50;3.70;;;;;;;12.43;100.00;100728.13;5078093;28;20278;-74
2022/10/17 00:34:41;;;;;;;4.70;3.20;;;;;;;12.40;100.00;100730.78;5076017;28;20731;-74
2022/10/17 00:37:06;;;;;;;4.03;3.37;;;;;;;12.38;100.00;100724.72;5081655;28;20721;-74
2022/10/17 00:39:31;;;;;;;4.63;3.47;;;;;;;12.36;100.00;100732.50;5075657;28;20619;-74
2022/10/17 00:41:56;;;;;;;3.87;3.43;;;;;;;12.37;100.00;100725.59;5075529;28;20190;-74
2022/10/17 00:44:28;;;;;;;5.47;3.33;;;;;;;12.34;100.00;100732.53;5080616;28;20249;-75
2022/10/17 00:46:53;;;;;;;4.63;3.40;;;;;;;12.33;100.00;100730.81;5075504;28;20229;-74
2022/10/17 00:49:19;;;;;;;5.17;3.10;;;;;;;12.33;100.00;100729.94;5074419;28;20724;-74
2022/10/17 00:51:51;;;;;;;3.97;3.03;;;;;;;12.31;100.00;100734.31;5084814;28;20238;-74
2022/10/17 00:54:22;;;;;;;4.67;3.27;;;;;;;12.31;100.00;100735.16;5076963;28;20996;-73
2022/10/17 00:56:48;;;;;;;6.47;3.33;;;;;;;12.31;100.00;100737.75;5078956;28;20299;-73
2022/10/17 00:59:19;;;;;;;3.90;3.30;;;;;;;12.30;100.00;100738.63;5077649;28;20182;-73
2022/10/17 01:01:58;;;;;;;3.40;3.07;;;;;;;12.29;100.00;100738.66;5079949;28;20205;-74
2022/10/17 01:04:24;;;;;;;3.87;2.93;;;;;;;12.28;100.00;100736.91;5070016;28;20182;-74
2022/10/17 01:06:49;;;;;;;4.90;3.10;;;;;;;12.25;100.00;100736.94;5079570;28;20878;-74
2022/10/17 01:09:17;;;;;;;2.93;2.50;;;;;;;12.24;100.00;100728.31;5080004;28;20967;-74
2022/10/17 01:11:51;;;;;;;3.03;2.73;;;;;;;12.22;100.00;100735.25;5077646;28;20217;-74
2022/10/17 01:14:44;;;;;;;4.53;3.07;;;;;;;12.20;100.00;100737.00;5078198;28;20627;-73
2022/10/17 01:17:34;;;;;;;3.17;2.97;;;;;;;12.17;100.00;100744.78;5073601;28;20281;-74
2022/10/17 01:20:20;;;;;;;3.87;3.57;;;;;;;12.14;100.00;100739.63;5077258;28;20334;-75
2022/10/17 01:22:47;;;;;;;4.27;3.17;;;;;;;12.10;100.00;100735.34;5071687;28;20539;-74
2022/10/17 01:25:50;;;;;;;3.20;2.90;;;;;;;12.12;100.00;100736.16;5072588;28;20186;-75
2022/10/17 01:28:45;;;;;;;3.43;2.80;;;;;;;12.09;100.00;100739.66;5071923;28;20243;-74
2022/10/17 01:31:24;;;;;;;3.67;3.10;;;;;;;12.06;100.00;100744.88;5075413;28;20202;-74
2022/10/17 01:34:20;;;;;;;3.20;2.90;;;;;;;12.02;100.00;100738.84;5073677;28;20185;-74
2022/10/17 01:36:55;;;;;;;5.20;3.20;;;;;;;11.99;100.00;100741.47;5067636;28;20190;-76
2022/10/17 01:39:37;;;;;;;5.00;3.00;;;;;;;11.96;100.00;100743.19;5069719;28;20184;-76
2022/10/17 01:42:11;;;;;;;3.10;2.80;;;;;;;11.93;100.00;100751.00;5075844;28;20289;-74
2022/10/17 01:44:39;;;;;;;3.70;3.00;;;;;;;11.89;100.00;100742.38;5075819;28;20270;-74
2022/10/17 01:47:09;;;;;;;2.80;2.60;;;;;;;11.86;100.00;100737.22;5067280;28;20185;-74
2022/10/17 01:49:37;;;;;;;4.73;2.87;;;;;;;11.82;100.00;100735.50;5072264;28;20623;-74
2022/10/17 01:52:12;;;;;;;3.10;2.73;;;;;;;11.81;100.00;100739.84;5077624;28;20271;-74
2022/10/17 01:54:43;;;;;;;2.43;2.20;;;;;;;11.79;100.00;100738.13;5070837;28;20209;-75
2022/10/17 01:57:14;;;;;;;3.77;2.70;;;;;;;11.79;100.00;100738.97;5075831;28;20183;-75
2022/10/17 01:59:43;;;;;;;4.37;3.03;;;;;;;11.81;100.00;100736.38;5072109;28;20195;-74
2022/10/17 02:02:10;;;;;;;3.90;2.97;;;;;;;11.79;100.00;100732.94;5071698;28;20195;-74
2022/10/17 02:04:35;;;;;;;4.23;3.10;;;;;;;11.76;100.00;100736.41;5066907;28;20187;-74
2022/10/17 02:07:09;;;;;;;4.03;3.23;;;;;;;11.74;100.00;100739.03;5076142;28;20201;-74
2022/10/17 02:09:35;;;;;;;4.13;3.40;;;;;;;11.73;100.00;100736.41;5069484;28;20272;-74
2022/10/17 02:12:15;;;;;;;4.13;3.10;;;;;;;11.71;100.00;100731.25;5075886;28;20211;-75
2022/10/17 02:15:02;;;;;;;3.00;2.80;;;;;;;11.70;100.00;100729.53;5071607;28;20191;-74
2022/10/17 02:18:06;;;;;;;3.70;2.87;;;;;;;11.69;100.00;100726.97;5075344;28;20185;-74
2022/10/17 02:20:44;;;;;;;3.20;2.87;;;;;;;11.68;100.00;100725.25;5068721;28;21256;-73
2022/10/17 02:23:37;;;;;;;2.90;2.70;;;;;;;11.66;100.00;100733.00;5071744;28;20205;-74
2022/10/17 02:26:10;;;;;;;3.50;3.20;;;;;;;11.65;100.00;100736.47;5072855;28;20292;-74
2022/10/17 02:28:51;;;;;;;3.90;2.90;;;;;;;11.62;100.00;100728.75;5073283;28;21094;-75
2022/10/17 02:31:24;;;;;;;3.07;2.70;;;;;;;11.62;100.00;100727.84;5066329;28;20259;-74
2022/10/17 02:33:58;;;;;;;4.47;2.87;;;;;;;11.61;100.00;100726.13;5073872;28;20188;-75
2022/10/17 02:36:32;;;;;;;3.43;2.40;;;;;;;11.59;100.00;100721.81;5072328;28;20269;-74
2022/10/17 02:39:00;;;;;;;3.20;2.90;;;;;;;11.59;100.00;100723.56;5069357;28;20388;-74
2022/10/17 02:41:26;;;;;;;3.60;2.67;;;;;;;11.59;100.00;100732.19;5075948;28;20212;-73
2022/10/17 02:43:52;;;;;;;3.10;2.80;;;;;;;11.57;100.00;100727.88;5100905;28;20171;-74
2022/10/17 02:46:21;;;;;;;6.63;2.73;;;;;;;11.54;100.00;100735.69;5100064;28;20198;-74
2022/10/17 02:48:51;;;;;;;3.27;2.63;;;;;;;11.52;100.00;100727.03;5079770;28;20213;-74
2022/10/17 02:51:28;;;;;;;2.80;2.57;;;;;;;11.48;100.00;100733.97;5082766;28;20297;-74
2022/10/17 02:54:13;;;;;;;3.07;2.73;;;;;;;11.46;100.00;100732.28;5080264;28;20191;-74
2022/10/17 02:56:45;;;;;;;3.23;2.50;;;;;;;11.46;100.00;100732.28;5081217;28;20190;-74
2022/10/17 02:59:14;;;;;;;3.03;2.60;;;;;;;11.41;100.00;100729.72;5072895;28;20253;-74
2022/10/17 03:01:40;;;;;;;3.40;2.80;;;;;;;11.40;100.00;100725.41;5075695;28;20286;-75
2022/10/17 03:04:08;;;;;;;5.00;3.23;;;;;;;11.39;100.00;100732.31;5070987;28;20185;-74
2022/10/17 03:06:34;;;;;;;4.03;2.83;;;;;;;11.40;100.00;100736.63;5071529;28;20186;-75
2022/10/17 03:08:59;;;;;;;4.50;2.73;;;;;;;11.41;100.00;100740.94;5065489;28;20251;-74
2022/10/17 03:11:24;;;;;;;2.60;2.30;;;;;;;11.42;100.00;100737.47;5071736;28;20208;-75
2022/10/17 03:13:50;;;;;;;6.77;3.30;;;;;;;11.42;100.00;100736.59;5070021;28;20192;-74
2022/10/17 03:16:15;;;;;;;4.90;3.03;;;;;;;11.41;100.00;100732.31;5071048;28;20189;-74
2022/10/17 03:18:40;;;;;;;3.57;3.03;;;;;;;11.39;100.00;100734.91;5073038;28;20192;-74
2022/10/17 03:21:06;;;;;;;4.70;2.93;;;;;;;11.36;100.00;100729.72;5071366;28;20209;-74
2022/10/17 03:23:31;;;;;;;3.97;2.80;;;;;;;11.34;100.00;100726.31;5070877;28;20198;-74
2022/10/17 03:25:56;;;;;;;2.93;2.73;;;;;;;11.31;100.00;100728.03;5075868;28;20185;-75
2022/10/17 03:28:21;;;;;;;2.67;2.47;;;;;;;11.27;100.00;100738.41;5066285;28;20578;-74
2022/10/17 03:30:47;;;;;;;3.93;2.60;;;;;;;11.24;100.00;100746.22;5069896;28;20213;-75
2022/10/17 03:33:12;;;;;;;3.30;2.40;;;;;;;11.20;100.00;100743.63;5078172;28;20189;-74
2022/10/17 03:35:39;;;;;;;5.00;2.70;;;;;;;11.17;100.00;100739.31;5072197;28;20194;-74
2022/10/17 03:38:07;;;;;;;3.20;2.30;;;;;;;11.15;100.00;100743.63;5065731;28;20206;-74
2022/10/17 03:40:32;;;;;;;9.80;3.00;;;;;;;11.18;100.00;100747.97;5072032;28;20244;-74
2022/10/17 03:42:58;;;;;;;3.77;3.20;;;;;;;11.23;100.00;100749.66;5070741;28;20292;-74
2022/10/17 03:45:23;;;;;;;4.43;2.77;;;;;;;11.28;100.00;100760.84;5068326;28;20188;-74
2022/10/17 03:47:48;;;;;;;3.07;2.77;;;;;;;11.28;100.00;100757.41;5078615;28;20623;-75
2022/10/17 03:50:13;;;;;;;3.40;3.10;;;;;;;11.29;100.00;100759.13;5070497;28;20213;-73
2022/10/17 03:52:39;;;;;;;3.43;2.83;;;;;;;11.27;100.00;100764.31;5076180;28;20206;-75
2022/10/17 03:55:04;;;;;;;4.40;2.83;;;;;;;11.27;100.00;100758.28;5070844;28;20243;-74
2022/10/17 03:57:30;;;;;;;3.17;2.87;;;;;;;11.26;100.00;100762.63;5070140;28;20186;-74
2022/10/17 03:59:55;;;;;;;5.17;3.07;;;;;;;11.26;100.00;100762.63;5077093;28;20236;-74
2022/10/17 04:02:20;;;;;;;3.40;3.00;;;;;;;11.24;100.00;100769.53;5072762;28;20189;-74
2022/10/17 04:04:46;;;;;;;3.30;3.03;;;;;;;11.24;100.00;100771.25;5074652;28;20190;-75
2022/10/17 04:07:12;;;;;;;4.30;2.83;;;;;;;11.22;100.00;100773.84;5070510;28;20192;-72
2022/10/17 04:09:37;;;;;;;4.40;2.93;;;;;;;11.21;100.00;100777.31;5070812;28;20188;-74
2022/10/17 04:12:03;;;;;;;3.53;3.23;;;;;;;11.20;100.00;100779.88;5072653;28;20177;-74
2022/10/17 04:14:28;;;;;;;3.23;2.93;;;;;;;11.20;100.00;100775.56;5072927;28;20238;-75
2022/10/17 04:16:53;;;;;;;5.23;3.17;;;;;;;11.22;100.00;100778.16;5073146;28;20199;-75
2022/10/17 04:19:21;;;;;;;3.20;2.90;;;;;;;11.21;100.00;100771.25;5073666;28;20170;-74
2022/10/17 04:21:47;;;;;;;3.77;3.30;;;;;;;11.19;100.00;100778.19;5073914;28;20212;-74
2022/10/17 04:24:12;;;;;;;4.20;2.70;;;;;;;11.19;100.00;100780.78;5068575;28;20183;-74
2022/10/17 04:26:37;;;;;;;2.80;2.60;;;;;;;11.17;100.00;100780.75;5072739;28;20236;-74
2022/10/17 04:29:03;;;;;;;2.90;2.70;;;;;;;11.18;100.00;100789.41;5073828;28;20692;-75
2022/10/17 04:31:28;;;;;;;3.63;3.03;;;;;;;11.17;100.00;100788.53;5070340;28;20209;-74
2022/10/17 04:33:53;;;;;;;3.13;2.77;;;;;;;11.15;100.00;100790.25;5080437;28;20183;-74
2022/10/17 04:36:18;;;;;;;3.00;2.80;;;;;;;11.13;100.00;100782.50;5080119;28;20617;-74
2022/10/17 04:38:44;;;;;;;3.70;3.13;;;;;;;11.14;100.00;100785.94;5080811;28;20281;-74
2022/10/17 04:41:15;;;;;;;3.93;2.87;;;;;;;11.12;100.00;100793.75;5080065;28;20290;-74
2022/10/17 04:43:40;;;;;;;4.53;3.07;;;;;;;11.08;100.00;100784.25;5077909;28;20198;-74
2022/10/17 04:46:11;;;;;;;3.10;2.80;;;;;;;11.06;100.00;100787.72;5083026;28;20276;-74
2022/10/17 04:48:37;;;;;;;4.63;3.00;;;;;;;11.04;100.00;100797.22;5082817;28;20241;-74
2022/10/17 04:51:05;;;;;;;3.57;2.90;;;;;;;11.02;100.00;100799.81;5083660;28;20212;-75
2022/10/17 04:53:35;;;;;;;6.33;3.23;;;;;;;11.02;100.00;100807.59;5080614;28;20231;-74
2022/10/17 04:56:08;;;;;;;3.20;2.90;;;;;;;11.02;100.00;100817.06;5073817;28;20530;-74
2022/10/17 04:58:34;;;;;;;3.80;2.93;;;;;;;11.00;100.00;100809.31;5077952;28;20193;-74
2022/10/17 05:01:05;;;;;;;3.80;3.10;;;;;;;11.00;100.00;100811.91;5081138;28;20635;-74
2022/10/17 05:03:30;;;;;;;3.43;3.13;;;;;;;10.98;100.00;100811.03;5078570;28;20565;-75
2022/10/17 05:05:55;;;;;;;3.27;2.97;;;;;;;10.97;100.00;100810.16;5070398;28;20276;-74
2022/10/17 05:08:20;;;;;;;3.30;3.00;;;;;;;10.99;100.00;100805.00;5070951;28;20213;-74
2022/10/17 05:10:46;;;;;;;3.57;3.10;;;;;;;11.01;100.00;100812.75;5073132;28;20222;-74
2022/10/17 05:13:12;;;;;;;4.97;3.00;;;;;;;11.01;100.00;100815.34;5076364;28;20198;-72
2022/10/17 05:15:37;;;;;;;4.07;3.20;;;;;;;11.01;100.00;100812.75;5077245;28;20197;-74
2022/10/17 05:18:04;;;;;;;3.77;2.90;;;;;;;11.00;100.00;100816.22;5076183;28;20186;-77
2022/10/17 05:20:29;;;;;;;3.47;3.00;;;;;;;11.00;100.00;100805.84;5084521;28;20209;-75
2022/10/17 05:22:57;;;;;;;4.03;3.00;;;;;;;10.98;100.00;100811.03;5071679;28;20197;-74
2022/10/17 05:25:23;;;;;;;5.07;2.97;;;;;;;10.97;100.00;100805.00;5074399;28;20272;-75
2022/10/17 05:27:48;;;;;;;5.20;2.90;;;;;;;11.00;100.00;100800.66;5084464;28;20292;-74
2022/10/17 05:30:16;;;;;;;4.23;3.00;;;;;;;11.00;100.00;100809.31;5078403;28;20604;-74
2022/10/17 05:32:41;;;;;;;3.50;3.17;;;;;;;11.00;100.00;100811.03;5069409;28;20189;-74
2022/10/17 05:35:07;;;;;;;4.53;2.90;;;;;;;10.98;100.00;100813.63;5069011;28;20565;-75
2022/10/17 05:37:32;;;;;;;4.13;3.70;;;;;;;10.97;100.00;100809.31;5075129;28;20578;-74
2022/10/17 05:39:57;;;;;;;3.53;3.17;;;;;;;10.96;100.00;100817.94;5071074;28;20346;-74
2022/10/17 05:42:23;;;;;;;4.07;3.40;;;;;;;10.97;100.00;100817.94;5064941;28;20670;-74
2022/10/17 05:44:48;;;;;;;4.70;3.17;;;;;;;10.95;100.00;100814.50;5078766;28;20287;-74
2022/10/17 05:47:14;;;;;;;5.30;3.60;;;;;;;10.95;100.00;100819.69;5076370;27;20240;-73
2022/10/17 05:49:39;;;;;;;4.60;3.20;;;;;;;10.93;100.00;100829.19;5067493;28;20200;-74
2022/10/17 05:52:05;;;;;;;6.23;3.20;;;;;;;10.92;100.00;100827.47;5072316;28;20268;-73
2022/10/17 05:54:30;;;;;;;5.37;3.37;;;;;;;10.91;100.00;100832.63;5073802;28;20204;-74
2022/10/17 05:56:56;;;;;;;5.83;3.23;;;;;;;10.89;100.00;100839.56;5076990;28;20203;-74
2022/10/17 05:59:23;;;;;;;3.10;2.90;;;;;;;10.87;100.00;100834.38;5079396;28;20185;-74
2022/10/17 06:01:49;;;;;;;3.07;2.77;;;;;;;10.86;100.00;100835.22;5081594;28;20216;-73
2022/10/17 06:04:14;;;;;;;3.17;2.77;;;;;;;10.87;100.00;100838.69;5073590;28;20268;-74
2022/10/17 06:06:39;;;;;;;4.50;2.87;;;;;;;10.89;100.00;100836.97;5072240;28;20816;-74
2022/10/17 06:09:06;;;;;;;6.23;3.30;;;;;;;10.93;100.00;100846.44;5077619;28;20217;-74
2022/10/17 06:11:32;;;;;;;9.40;3.13;;;;;;;10.94;100.00;100849.03;5082165;28;20258;-74
2022/10/17 06:13:57;;;;;;;5.17;2.97;;;;;;;10.98;100.00;100847.31;5077912;28;20197;-74
2022/10/17 06:16:23;;;;;;;5.27;3.13;;;;;;;11.00;100.00;100862.81;5085291;28;20212;-74
2022/10/17 06:18:48;;;;;;;3.27;2.97;;;;;;;11.01;100.00;100851.59;5079782;28;20186;-74
2022/10/17 06:21:17;;;;;;;5.67;2.90;;;;;;;11.06;100.00;100857.66;5084435;28;20965;-74
2022/10/17 06:23:43;;;;;;;4.83;2.97;;;;;;;11.10;100.00;100856.78;5066630;28;20190;-74
2022/10/17 06:26:08;;;;;;;3.63;2.83;;;;;;;11.16;100.00;100861.09;5084185;28;20186;-74
2022/10/17 06:28:34;;;;;;;3.43;3.13;;;;;;;11.22;100.00;100866.25;5097278;28;20210;-75
2022/10/17 06:31:08;;;;;;;3.40;3.10;;;;;;;11.29;100.00;100863.63;5066437;28;20618;-74
2022/10/17 06:33:34;;;;;;;3.40;3.10;;;;;;;11.36;100.00;100861.03;5078584;28;20220;-75
2022/10/17 06:35:59;;;;;;;3.27;2.73;;;;;;;11.44;100.00;100877.41;5086104;28;20602;-74
2022/10/17 06:38:24;;;;;;;4.20;2.80;;;;;;;11.50;100.00;100872.22;5078723;28;20206;-73
2022/10/17 06:40:50;;;;;;;5.47;2.93;;;;;;;11.58;100.00;100878.22;5069414;28;20293;-74
2022/10/17 06:43:15;;;;;;;3.93;3.13;;;;;;;11.65;100.00;100886.00;5080888;28;20650;-74
2022/10/17 06:45:41;;;;;;;4.00;3.20;;;;;;;11.72;100.00;100879.94;5080356;28;20197;-73
2022/10/17 06:48:07;;;;;;;3.77;3.23;;;;;;;11.77;100.00;100891.13;5073704;28;20221;-74
2022/10/17 06:50:33;;;;;;;5.47;3.03;;;;;;;11.82;100.00;100886.78;5080963;28;20743;-74
2022/10/17 06:52:58;;;;;;;5.47;3.43;;;;;;;11.87;100.00;100900.56;5081986;28;20215;-74
2022/10/17 06:55:24;;;;;;;4.90;3.37;;;;;;;11.94;100.00;100897.97;5075934;28;20674;-75
2022/10/17 06:57:51;;;;;;;5.47;2.90;;;;;;;12.02;100.00;100904.03;5078856;28;20179;-75
2022/10/17 07:00:16;;;;;;;5.77;3.10;;;;;;;12.11;100.00;100903.97;5074666;28;20224;-75
2022/10/17 07:02:42;;;;;;;4.37;2.80;;;;;;;12.23;100.00;100902.16;5083464;28;20193;-74
2022/10/17 07:05:08;;;;;;;4.43;3.43;;;;;;;12.33;100.00;100906.41;5079574;28;20194;-74
2022/10/17 07:07:34;;;;;;;3.93;2.83;;;;;;;12.44;100.00;100909.81;5072772;28;20213;-75
2022/10/17 07:09:59;;;;;;;3.20;2.90;;;;;;;12.56;100.00;100913.22;5076156;28;20200;-75
2022/10/17 07:12:25;;;;;;;3.57;3.27;;;;;;;12.65;100.00;100898.44;5080502;28;20191;-75
2022/10/17 07:14:50;;;;;;;4.40;3.30;;;;;;;12.72;100.00;100904.44;5082316;28;20274;-75
2022/10/17 07:17:17;;;;;;;5.27;3.50;;;;;;;12.80;100.00;100914.75;5078956;28;20764;-75
2022/10/17 07:19:43;;;;;;;3.63;2.97;;;;;;;12.86;100.00;100919.03;5073835;28;20285;-75
2022/10/17 07:22:09;;;;;;;3.00;2.80;;;;;;;12.91;100.00;100919.88;5071213;28;20279;-74
2022/10/17 07:24:34;;;;;;;4.77;3.00;;;;;;;12.99;100.00;100922.41;5071875;28;20265;-74
2022/10/17 07:27:00;;;;;;;5.93;3.43;;;;;;;13.05;100.00;100927.53;5085867;28;20184;-74
2022/10/17 07:29:25;;;;;;;3.87;3.40;;;;;;;13.14;100.00;100931.78;5084543;28;20214;-75
2022/10/17 07:31:50;;;;;;;5.17;3.70;;;;;;;13.25;100.00;100932.53;5082108;28;20211;-75
2022/10/17 07:34:16;;;;;;;5.63;3.90;;;;;;;13.38;100.00;100930.69;5079831;28;20279;-73
2022/10/17 07:36:42;;;;;;;6.10;4.10;;;;;;;13.49;100.00;100931.47;5084570;28;20529;-74
2022/10/17 07:39:07;;;;;;;8.80;4.10;;;;;;;13.62;100.00;100931.31;5075348;28;20185;-74
2022/10/17 07:41:32;;;;;;;4.57;3.70;;;;;;;13.70;100.00;100937.31;5075934;28;20217;-74
2022/10/17 07:43:58;;;;;;;6.33;3.77;;;;;;;13.79;100.00;100934.59;5072483;28;20281;-74
2022/10/17 07:46:23;;;;;;;4.33;3.60;;;;;;;13.89;100.00;100942.31;5076664;28;20221;-75
2022/10/17 07:48:48;;;;;;;4.90;3.53;;;;;;;13.96;100.00;100939.59;5073149;28;20689;-74
2022/10/17 07:51:16;;;;;;;3.87;3.10;;;;;;;14.06;100.00;100929.06;5075226;28;20235;-75
2022/10/17 07:53:43;;;;;;;4.60;3.40;;;;;;;14.16;100.00;100938.47;5076714;28;20189;-75
2022/10/17 07:56:09;;;;;;;3.60;3.30;;;;;;;14.31;100.00;100943.47;5084038;28;20204;-75
2022/10/17 07:58:36;;;;;;;3.60;3.30;;;;;;;14.44;100.00;100945.91;5063882;28;20246;-74
2022/10/17 08:01:07;;;;;;;5.43;3.47;;;;;;;14.55;100.00;100943.13;5073954;28;20946;-75
2022/10/17 08:03:32;;;;;;;6.47;3.40;;;;;;;14.66;100.00;100943.84;5078311;28;20198;-75
2022/10/17 08:05:59;;;;;;;3.97;3.27;;;;;;;14.82;100.00;100951.47;5076470;28;20200;-75
2022/10/17 08:08:25;;;;;;;6.13;3.90;;;;;;;14.97;100.00;100952.94;5082932;28;20212;-75
2022/10/17 08:10:51;;;;;;;4.63;3.60;;;;;;;15.08;100.00;100953.63;5071236;28;20587;-75
2022/10/17 08:13:16;;;;;;;5.13;3.57;;;;;;;15.23;100.00;100955.09;5072249;28;20201;-74
2022/10/17 08:15:42;;;;;;;4.37;3.00;;;;;;;15.39;100.00;100966.09;5079024;28;20212;-75
2022/10/17 08:18:07;;;;;;;7.20;4.00;;;;;;;15.50;100.00;100963.31;5078497;28;20189;-75
2022/10/17 08:20:33;;;;;;;6.20;3.40;;;;;;;15.61;100.00;100957.91;5075230;28;20214;-75
2022/10/17 08:22:58;;;;;;;4.93;3.70;;;;;;;15.75;100.00;100950.66;5082380;28;20197;-75
2022/10/17 08:25:23;;;;;;;4.57;3.50;;;;;;;15.85;100.00;100960.03;5079308;28;20200;-75
2022/10/17 08:27:49;;;;;;;4.20;3.73;;;;;;;15.92;100.00;100957.31;5076356;28;20209;-75
2022/10/17 08:30:15;;;;;;;3.27;2.97;;;;;;;16.00;100.00;100966.72;5070194;28;20217;-75
2022/10/17 08:32:40;;;;;;;4.27;3.10;;;;;;;16.19;100.00;100968.06;5096444;28;20184;-74
2022/10/17 08:35:06;;;;;;;4.53;3.00;;;;;;;16.37;100.00;100969.41;5109149;28;20205;-73
2022/10/17 08:37:31;;;;;;;3.27;3.00;;;;;;;16.55;100.00;100960.31;5114777;28;20903;-73
2022/10/17 08:39:56;;;;;;;4.17;2.63;;;;;;;16.70;100.00;100972.16;5109050;28;20239;-75
2022/10/17 08:42:52;;;;;;;2.80;2.60;;;;;;;16.88;100.00;100971.72;5098251;28;20189;-75
2022/10/17 08:45:30;;;;;;;4.10;2.97;;;;;;;17.08;100.00;100972.16;5109991;28;20193;-72
2022/10/17 08:48:00;;;;;;;3.40;2.73;;;;;;;17.26;100.00;100973.44;5108698;28;20201;-74
2022/10/17 08:50:33;;;;;;;3.43;2.60;;;;;;;17.39;100.00;100971.38;5099457;28;20204;-74
2022/10/17 08:53:24;;;;;;;3.03;2.83;;;;;;;17.55;100.00;100971.78;5111935;28;20278;-75
2022/10/17 08:55:51;;;;;;;3.43;2.80;;;;;;;17.67;100.00;100972.31;5111427;28;20181;-74
2022/10/17 08:58:27;;;;;;;3.50;2.87;;;;;;;17.85;100.00;100977.09;5108965;28;20202;-74
2022/10/17 09:01:12;;;;;;;3.37;2.67;;;;;;;18.01;100.00;100967.06;5106518;28;20208;-73
2022/10/17 09:04:09;;;;;;;4.10;2.97;;;;;;;18.10;100.00;100961.56;5123217;28;20223;-73
2022/10/17 09:06:39;;;;;;;3.20;2.67;;;;;;;18.18;100.00;100972.69;5093752;28;20166;-73
2022/10/17 09:09:26;;;;;;;3.93;3.10;;;;;;;18.30;100.00;100965.34;5100805;28;20197;-74
2022/10/17 09:12:19;;;;;;;4.03;2.50;;;;;;;18.44;100.00;100963.16;5109407;28;20211;-74
2022/10/17 09:14:52;;;;;;;3.83;2.80;;;;;;;18.58;100.00;100968.81;5111084;28;20169;-74
2022/10/17 09:17:57;;;;;;;2.83;2.63;;;;;;;18.67;100.00;100978.16;5110679;28;20685;-73
2022/10/17 09:20:28;;;;;;;3.47;2.90;;;;;;;18.79;100.00;100974.31;5105340;28;20193;-74
2022/10/17 09:23:01;;;;;;;3.40;2.50;;;;;;;18.88;100.00;100987.09;5112523;28;20162;-74
2022/10/17 09:25:27;;;;;;;3.13;2.83;;;;;;;18.96;100.00;100991.28;5106082;28;20183;-73
2022/10/17 09:28:03;;;;;;;3.20;2.70;;;;;;;19.03;100.00;100987.53;5104548;28;20208;-74
2022/10/17 09:30:41;;;;;;;3.33;2.60;;;;;;;19.12;100.00;100979.38;5102990;28;20213;-74
2022/10/17 09:33:18;;;;;;;3.80;2.70;;;;;;;19.17;100.00;100985.31;5095991;28;20210;-74
2022/10/17 09:35:45;;;;;;;3.27;2.70;;;;;;;19.17;100.00;100974.81;5101859;28;20189;-74
2022/10/17 09:38:17;;;;;;;3.70;2.50;;;;;;;19.22;100.00;100979.91;5099325;28;20177;-73
2022/10/17 09:40:45;;;;;;;4.70;2.73;;;;;;;19.26;100.00;100976.25;5104650;28;20212;-73
2022/10/17 09:43:13;;;;;;;5.43;3.33;;;;;;;19.27;100.00;100977.13;5100802;28;20199;-74
2022/10/17 09:45:52;;;;;;;3.10;2.50;;;;;;;19.26;100.00;100978.03;5091688;28;20204;-74
2022/10/17 09:48:25;;;;;;;2.80;2.60;;;;;;;19.27;100.00;100985.00;5076532;28;20209;-73
2022/10/17 09:50:52;;;;;;;3.10;2.80;;;;;;;19.30;100.00;100984.88;5079391;28;20216;-73
2022/10/17 09:53:26;;;;;;;2.70;2.50;;;;;;;19.35;100.00;100988.22;5084447;28;20189;-73
2022/10/17 09:56:00;;;;;;;2.60;2.40;;;;;;;19.40;100.00;100975.81;5082623;28;20543;-74
2022/10/17 09:58:53;;;;;;;3.80;3.10;;;;;;;19.49;100.00;100974.63;5077566;28;20720;-73
2022/10/17 10:01:22;;;;;;;4.80;3.00;;;;;;;19.55;100.00;100961.25;5078960;28;20205;-74
2022/10/17 10:03:51;;;;;;;4.20;2.97;;;;;;;19.60;100.00;100972.47;5083638;28;20638;-74
2022/10/17 10:06:19;;;;;;;2.53;2.33;;;;;;;19.68;100.00;100972.19;5074121;28;20252;-74
2022/10/17 10:08:53;;;;;;;3.10;2.83;;;;;;;19.82;100.00;100971.66;5087038;28;20648;-74
2022/10/17 10:11:25;;;;;;;2.80;2.50;;;;;;;19.92;100.00;100985.34;5085227;28;20288;-74
2022/10/17 10:13:51;;;;;;;2.50;2.30;;;;;;;20.01;100.00;100977.16;5081636;28;20197;-75
2022/10/17 10:16:16;;;;;;;3.00;2.67;;;;;;;20.09;100.00;100982.97;5079005;28;20255;-75
2022/10/17 10:18:42;;;;;;;3.40;2.80;;;;;;;20.18;100.00;100987.00;5079451;28;20213;-75
2022/10/17 10:21:09;;;;;;;3.27;2.70;;;;;;;20.30;100.00;100980.44;5075735;28;20205;-75
2022/10/17 10:23:39;;;;;;;2.60;2.40;;;;;;;20.36;100.00;100976.72;5079416;28;20209;-76
2022/10/17 10:26:34;;;;;;;2.90;2.67;;;;;;;20.44;100.00;100986.94;5078067;28;20190;-74
2022/10/17 10:29:02;;;;;;;3.30;2.90;;;;;;;20.45;100.00;100983.38;5074142;28;20302;-75
2022/10/17 10:31:34;;;;;;;3.73;2.90;;;;;;;20.53;100.00;100989.19;5084403;28;20708;-75
2022/10/17 10:34:11;;;;;;;3.13;2.60;;;;;;;20.50;100.00;100984.03;5069502;28;20188;-74
2022/10/17 10:36:47;;;;;;;2.40;2.20;;;;;;;20.51;100.00;100991.88;5083012;28;20188;-74
2022/10/17 10:39:26;;;;;;;3.10;2.60;;;;;;;20.58;100.00;100984.59;5081702;28;20643;-74
2022/10/17 10:41:52;;;;;;;3.83;2.70;;;;;;;20.61;100.00;100987.13;5081200;28;20582;-75
2022/10/17 10:44:22;;;;;;;3.30;2.60;;;;;;;20.64;100.00;100981.75;5080332;28;20248;-74
2022/10/17 10:47:04;;;;;;;2.43;2.23;;;;;;;20.69;100.00;100985.03;5077266;28;20189;-74
2022/10/17 10:49:31;;;;;;;3.50;2.40;;;;;;;20.76;100.00;100990.09;5085061;28;20201;-75
2022/10/17 10:51:59;;;;;;;2.57;2.37;;;;;;;20.81;100.00;100988.09;5077936;28;20591;-74
2022/10/17 10:54:41;;;;;;;3.33;2.53;;;;;;;20.90;100.00;100984.25;5078906;28;20653;-73
2022/10/17 10:57:18;;;;;;;4.30;2.47;;;;;;;20.97;100.00;100981.28;5078344;28;20753;-76
2022/10/17 11:00:04;;;;;;;2.87;2.50;;;;;;;21.07;100.00;100983.56;5080270;28;20180;-73
2022/10/17 11:02:41;;;;;;;4.00;2.63;;;;;;;21.15;100.00;100984.94;5076764;28;20596;-74
2022/10/17 11:05:12;;;;;;;3.03;2.23;;;;;;;21.26;100.00;100989.72;5079287;28;20184;-74
2022/10/17 11:07:43;;;;;;;2.90;2.70;;;;;;;21.34;100.00;100985.94;5078999;28;20178;-75
2022/10/17 11:10:20;;;;;;;3.00;2.50;;;;;;;21.43;100.00;100996.94;5080322;28;20224;-76
2022/10/17 11:12:53;;;;;;;3.53;2.40;;;;;;;21.53;100.00;101000.03;5079518;28;20241;-74
2022/10/17 11:15:44;;;;;;;2.63;2.43;;;;;;;21.55;100.00;100992.91;5078944;28;20181;-74
2022/10/17 11:18:21;;;;;;;3.70;2.40;;;;;;;21.60;100.00;101001.47;5081612;28;20331;-75
2022/10/17 11:20:59;;;;;;;2.93;2.67;;;;;;;21.63;100.00;101000.47;5077887;28;20205;-74
2022/10/17 11:23:36;;;;;;;2.33;2.07;;;;;;;21.69;100.00;101002.00;5078320;28;20233;-75
2022/10/17 11:26:09;;;;;;;3.07;2.77;;;;;;;21.75;100.00;101010.50;5085389;28;20185;-75
2022/10/17 11:28:35;;;;;;;2.43;2.23;;;;;;;21.80;100.00;101005.00;5085826;28;20617;-75